Time;durP1;ratioP1;P1;durP2;ratioP2;P2;SDS_P1;SDS_P2;PMS_P1;PMS_P2;Temp;Humidity;BMP_temperature;BMP_pressure;BME280_temperature;BME280_humidity;BME280_pressure;Samples;Min_cycle;Max_cycle;Signal;HPM_P1;HPM_P2
2022/01/02 00:00:28;;;;;;;0.30;0.30;;;9.20;99.90;;;;;;5114679;28;20233;-71
2022/01/02 00:03:01;;;;;;;3.00;2.80;;;9.20;99.90;;;;;;5114491;28;20198;-71
2022/01/02 00:05:32;;;;;;;1.10;0.70;;;9.20;99.90;;;;;;5114798;28;20243;-71
2022/01/02 00:08:03;;;;;;;2.13;0.80;;;9.20;99.90;;;;;;5114525;28;20175;-72
2022/01/02 00:10:32;;;;;;;1.47;1.37;;;9.20;99.90;;;;;;5114312;28;20175;-71
2022/01/02 00:12:59;;;;;;;4.13;0.57;;;9.20;99.90;;;;;;5113308;28;20281;-71
2022/01/02 00:15:25;;;;;;;0.70;0.70;;;9.20;99.90;;;;;;5114861;28;20170;-71
2022/01/02 00:17:55;;;;;;;1.40;1.33;;;9.20;99.90;;;;;;5113899;28;20231;-71
2022/01/02 00:20:32;;;;;;;3.03;1.03;;;9.20;99.90;;;;;;5114493;28;20231;-71
2022/01/02 00:23:05;;;;;;;1.40;1.30;;;9.20;99.90;;;;;;5114071;28;20212;-71
2022/01/02 00:25:36;;;;;;;0.87;0.87;;;9.20;99.90;;;;;;5114350;28;20228;-71
2022/01/02 00:28:02;;;;;;;1.60;1.50;;;9.30;99.90;;;;;;5113753;28;20178;-71
2022/01/02 00:30:29;;;;;;;1.10;1.10;;;9.30;99.90;;;;;;5114173;28;20579;-71
2022/01/02 00:32:55;;;;;;;0.30;0.30;;;9.30;99.90;;;;;;5113860;28;20294;-71
2022/01/02 00:35:21;;;;;;;2.00;1.57;;;9.20;99.90;;;;;;5114173;28;20576;-71
2022/01/02 00:37:47;;;;;;;2.77;0.80;;;9.20;99.90;;;;;;5113781;28;20179;-71
2022/01/02 00:40:14;;;;;;;0.27;0.27;;;9.20;99.90;;;;;;5095523;28;20171;-71
2022/01/02 00:42:42;;;;;;;1.33;1.23;;;9.20;99.90;;;;;;5112617;28;20190;-71
2022/01/02 00:45:26;;;;;;;0.97;0.93;;;9.20;99.90;;;;;;5110032;28;20191;-71
2022/01/02 00:47:56;;;;;;;0.40;0.40;;;9.20;99.90;;;;;;5104257;28;20269;-71
2022/01/02 00:50:29;;;;;;;1.27;1.17;;;9.20;99.90;;;;;;5113473;28;20654;-71
2022/01/02 00:52:58;;;;;;;1.63;0.73;;;9.20;99.90;;;;;;5107129;28;20256;-71
2022/01/02 00:55:25;;;;;;;0.60;0.60;;;9.20;99.90;;;;;;5113165;28;20171;-72
2022/01/02 00:57:58;;;;;;;0.47;0.47;;;9.10;99.90;;;;;;5094706;28;20231;-72
2022/01/02 01:00:24;;;;;;;2.23;2.03;;;9.10;99.90;;;;;;5069369;28;20175;-71
2022/01/02 01:02:55;;;;;;;1.20;1.20;;;9.10;99.90;;;;;;5113006;28;20202;-72
2022/01/02 01:05:29;;;;;;;1.20;1.20;;;9.00;99.90;;;;;;5112731;28;20171;-72
2022/01/02 01:07:57;;;;;;;0.77;0.77;;;9.00;99.90;;;;;;5112853;28;20186;-71
2022/01/02 01:10:25;;;;;;;1.03;0.97;;;9.00;99.90;;;;;;5115425;28;20174;-71
2022/01/02 01:12:52;;;;;;;1.27;1.17;;;9.00;99.90;;;;;;5114733;28;20286;-71
2022/01/02 01:15:20;;;;;;;1.60;1.53;;;9.00;99.90;;;;;;5113956;28;20167;-72
2022/01/02 01:17:46;;;;;;;2.23;1.73;;;9.10;99.90;;;;;;5113126;28;20227;-71
2022/01/02 01:20:15;;;;;;;1.10;0.73;;;9.10;99.90;;;;;;5113758;28;20171;-72
2022/01/02 01:22:41;;;;;;;4.40;2.87;;;9.10;99.90;;;;;;5114019;28;20198;-72
2022/01/02 01:25:13;;;;;;;0.40;0.40;;;9.10;99.90;;;;;;5113728;28;20175;-72
2022/01/02 01:27:39;;;;;;;0.77;0.70;;;9.20;99.90;;;;;;5113701;28;20186;-72
2022/01/02 01:30:06;;;;;;;6.93;1.63;;;9.20;99.90;;;;;;5113375;28;20191;-72
2022/01/02 01:32:31;;;;;;;1.27;0.67;;;9.20;99.90;;;;;;5112879;28;20203;-71
2022/01/02 01:34:57;;;;;;;1.60;1.13;;;9.20;99.90;;;;;;5113155;28;20519;-72
2022/01/02 01:37:22;;;;;;;1.43;1.33;;;9.20;99.90;;;;;;5112494;28;20230;-72
2022/01/02 01:39:48;;;;;;;0.83;0.63;;;9.10;99.90;;;;;;5112781;28;20211;-72
2022/01/02 01:42:14;;;;;;;1.27;1.17;;;9.20;99.90;;;;;;5112673;28;20178;-72
2022/01/02 01:47:14;;;;;;;3.57;2.10;;;9.10;99.90;;;;;;5097264;28;20202;-73
2022/01/02 01:49:40;;;;;;;2.33;1.70;;;9.00;99.90;;;;;;5112506;28;20210;-73
2022/01/02 01:52:05;;;;;;;1.30;1.07;;;9.00;99.90;;;;;;5106907;28;20574;-72
2022/01/02 01:54:31;;;;;;;1.03;0.97;;;9.00;99.90;;;;;;5111599;28;20662;-73
2022/01/02 01:56:56;;;;;;;1.33;0.63;;;9.00;99.90;;;;;;5093935;28;20179;-73
2022/01/02 01:59:23;;;;;;;3.97;0.77;;;9.00;99.90;;;;;;5112131;28;20630;-73
2022/01/02 02:01:49;;;;;;;1.43;1.33;;;8.90;99.90;;;;;;5112479;28;20270;-73
2022/01/02 02:04:15;;;;;;;1.60;1.33;;;8.90;99.90;;;;;;5112288;28;20209;-73
2022/01/02 02:06:41;;;;;;;0.97;0.97;;;8.90;99.90;;;;;;5111926;28;20186;-73
2022/01/02 02:09:07;;;;;;;0.17;0.17;;;8.90;99.90;;;;;;5112323;28;20674;-73
2022/01/02 02:11:36;;;;;;;0.97;0.83;;;8.90;99.90;;;;;;5112274;28;20220;-72
2022/01/02 02:14:04;;;;;;;4.43;2.53;;;8.90;99.90;;;;;;5093764;28;21000;-73
2022/01/02 02:16:30;;;;;;;2.10;2.00;;;8.90;99.90;;;;;;5111776;28;20240;-73
2022/01/02 02:18:55;;;;;;;1.40;1.27;;;8.90;99.90;;;;;;5112203;28;20569;-73
2022/01/02 02:21:29;;;;;;;2.53;2.07;;;9.00;99.90;;;;;;5112177;28;20187;-73
2022/01/02 02:23:55;;;;;;;0.67;0.67;;;9.00;99.90;;;;;;5112005;28;20236;-73
2022/01/02 02:26:20;;;;;;;0.57;0.57;;;9.00;99.90;;;;;;5093287;28;20179;-73
2022/01/02 02:28:46;;;;;;;0.40;0.40;;;9.00;99.90;;;;;;5093370;28;20182;-73
2022/01/02 02:31:11;;;;;;;2.07;1.97;;;9.00;99.90;;;;;;5111847;28;20251;-73
2022/01/02 02:33:37;;;;;;;4.33;1.40;;;9.00;99.90;;;;;;5111890;28;20195;-73
2022/01/02 02:36:03;;;;;;;1.40;1.30;;;8.90;99.90;;;;;;5111386;28;20202;-73
2022/01/02 02:38:28;;;;;;;3.03;2.83;;;8.90;99.90;;;;;;5111522;28;20300;-73
2022/01/02 02:40:54;;;;;;;0.80;0.80;;;8.80;99.90;;;;;;5111737;28;20171;-74
2022/01/02 02:44:04;;;;;;;1.07;0.87;;;8.90;99.90;;;;;;5111723;28;20677;-73
2022/01/02 02:49:02;;;;;;;1.73;1.63;;;8.90;99.90;;;;;;5098300;28;20243;-73
2022/01/02 02:51:44;;;;;;;0.67;0.67;;;8.90;99.90;;;;;;5106342;28;20682;-73
2022/01/02 02:54:16;;;;;;;4.03;1.07;;;8.90;99.90;;;;;;5111546;28;20187;-73
2022/01/02 02:59:08;;;;;;;0.53;0.53;;;9.00;99.90;;;;;;5111448;28;20608;-73
2022/01/02 03:01:34;;;;;;;2.03;1.93;;;9.00;99.90;;;;;;5111409;28;20179;-73
2022/01/02 03:03:59;;;;;;;1.67;0.30;;;9.00;99.90;;;;;;5111609;28;20220;-73
2022/01/02 03:06:25;;;;;;;1.90;1.80;;;9.00;99.90;;;;;;5114163;28;20225;-74
2022/01/02 03:08:52;;;;;;;1.43;1.17;;;9.00;99.90;;;;;;5115404;28;20181;-73
2022/01/02 03:11:20;;;;;;;1.30;1.20;;;9.00;99.90;;;;;;5115298;28;20190;-73
2022/01/02 03:13:48;;;;;;;1.40;1.37;;;9.10;99.90;;;;;;5115193;28;20245;-73
2022/01/02 03:16:15;;;;;;;3.07;1.73;;;9.10;99.90;;;;;;5115074;28;20175;-73
2022/01/02 03:18:41;;;;;;;1.90;1.80;;;9.10;99.90;;;;;;5115197;28;20729;-73
2022/01/02 03:21:08;;;;;;;2.23;0.63;;;9.10;99.90;;;;;;5097026;28;20203;-73
2022/01/02 03:23:34;;;;;;;1.17;1.17;;;9.10;99.90;;;;;;5114925;28;20191;-73
2022/01/02 03:26:00;;;;;;;4.90;2.10;;;9.20;99.90;;;;;;5114955;28;20174;-73
2022/01/02 03:28:26;;;;;;;2.07;1.70;;;9.20;99.90;;;;;;5114926;28;20171;-73
2022/01/02 03:30:52;;;;;;;3.13;2.80;;;9.10;99.90;;;;;;5114904;28;20175;-73
2022/01/02 03:33:17;;;;;;;2.83;1.63;;;9.10;99.90;;;;;;5115011;28;20234;-73
2022/01/02 03:35:43;;;;;;;2.53;2.33;;;9.00;99.90;;;;;;5114935;28;20193;-73
2022/01/02 03:38:09;;;;;;;0.27;0.27;;;9.00;99.90;;;;;;5114667;28;20186;-73
2022/01/02 03:40:35;;;;;;;2.77;1.70;;;9.00;99.90;;;;;;5115034;28;20179;-73
2022/01/02 03:43:02;;;;;;;6.53;1.80;;;9.00;99.90;;;;;;5114787;28;20206;-73
2022/01/02 03:45:27;;;;;;;0.50;0.50;;;8.90;99.90;;;;;;5108346;28;20174;-73
2022/01/02 03:47:53;;;;;;;0.30;0.30;;;8.90;99.90;;;;;;5087185;28;20245;-72
2022/01/02 03:50:19;;;;;;;0.20;0.20;;;9.00;99.90;;;;;;5096434;28;20272;-72
2022/01/02 03:52:44;;;;;;;0.77;0.77;;;9.00;99.90;;;;;;5109029;28;20195;-73
2022/01/02 03:55:11;;;;;;;1.03;0.87;;;9.00;99.90;;;;;;5114695;28;20195;-72
2022/01/02 03:57:37;;;;;;;2.33;1.47;;;9.00;99.90;;;;;;5114326;28;20266;-72
2022/01/02 04:00:08;;;;;;;1.07;1.07;;;9.10;99.90;;;;;;5114451;28;20255;-72
2022/01/02 04:02:37;;;;;;;1.90;1.80;;;9.10;99.90;;;;;;5114309;28;20214;-71
2022/01/02 04:05:05;;;;;;;2.77;2.57;;;9.10;99.90;;;;;;5114526;28;20654;-73
2022/01/02 04:07:30;;;;;;;1.00;0.73;;;9.20;99.90;;;;;;5114006;28;20213;-73
2022/01/02 04:10:00;;;;;;;2.53;2.27;;;9.20;99.90;;;;;;5114399;28;20181;-72
2022/01/02 04:12:26;;;;;;;0.87;0.87;;;9.20;99.90;;;;;;5114184;28;20199;-72
2022/01/02 04:14:52;;;;;;;0.43;0.43;;;9.20;99.90;;;;;;5114260;28;20195;-72
2022/01/02 04:17:17;;;;;;;10.70;1.07;;;9.20;99.90;;;;;;5112773;28;20183;-72
2022/01/02 04:19:43;;;;;;;0.80;0.60;;;9.20;99.90;;;;;;5095867;28;20600;-72
2022/01/02 04:22:08;;;;;;;4.80;2.13;;;9.30;99.90;;;;;;5114850;28;20183;-72
2022/01/02 04:24:34;;;;;;;1.03;1.03;;;9.30;99.90;;;;;;5114116;28;20200;-72
2022/01/02 04:26:59;;;;;;;3.10;1.67;;;9.40;99.90;;;;;;5113770;28;20211;-72
2022/01/02 04:29:25;;;;;;;2.63;2.00;;;9.40;99.90;;;;;;5113855;28;20658;-72
2022/01/02 04:31:50;;;;;;;3.83;3.43;;;9.50;99.90;;;;;;5113976;28;20206;-72
2022/01/02 04:34:16;;;;;;;3.20;0.90;;;9.50;99.90;;;;;;5113804;28;20589;-72
2022/01/02 04:36:41;;;;;;;8.27;2.73;;;9.50;99.90;;;;;;5113455;28;20185;-71
2022/01/02 04:39:07;;;;;;;1.13;1.13;;;9.50;99.90;;;;;;5113732;28;20175;-72
2022/01/02 04:41:32;;;;;;;3.03;2.30;;;9.50;99.90;;;;;;5113890;28;20183;-72
2022/01/02 04:43:58;;;;;;;2.30;2.03;;;9.50;99.90;;;;;;5113576;28;20693;-72
2022/01/02 04:46:23;;;;;;;4.47;3.23;;;9.50;99.90;;;;;;5098961;28;20176;-73
2022/01/02 04:48:49;;;;;;;1.40;1.30;;;9.50;99.90;;;;;;5112375;28;20654;-73
2022/01/02 04:51:15;;;;;;;7.57;2.30;;;9.40;99.90;;;;;;5109231;28;20178;-73
2022/01/02 04:53:47;;;;;;;3.53;2.00;;;9.40;99.90;;;;;;5112330;28;20199;-72
2022/01/02 04:56:12;;;;;;;0.97;0.97;;;9.40;99.90;;;;;;5112882;28;20216;-73
2022/01/02 04:58:38;;;;;;;1.97;1.87;;;9.30;99.90;;;;;;5113147;28;20183;-72
2022/01/02 05:01:07;;;;;;;9.83;2.60;;;9.30;99.90;;;;;;5113322;28;20182;-72
2022/01/02 05:03:33;;;;;;;1.00;1.00;;;9.30;99.90;;;;;;5113256;28;20218;-72
2022/01/02 05:05:59;;;;;;;3.87;1.37;;;9.20;99.90;;;;;;5112928;28;20627;-72
2022/01/02 05:08:24;;;;;;;1.70;0.90;;;9.20;99.90;;;;;;5113201;28;20208;-72
2022/01/02 05:10:50;;;;;;;7.53;1.37;;;9.10;99.90;;;;;;5113078;28;20171;-73
2022/01/02 05:13:16;;;;;;;1.67;1.57;;;9.10;99.90;;;;;;5122561;22;20236;-74
2022/01/02 05:15:41;;;;;;;4.33;1.07;;;9.00;99.90;;;;;;5032382;28;20559;-75
2022/01/02 05:18:07;;;;;;;2.63;1.03;;;9.00;99.90;;;;;;5014147;28;20181;-74
2022/01/02 05:20:33;;;;;;;0.40;0.40;;;9.10;99.90;;;;;;5032438;28;20185;-74
2022/01/02 05:22:58;;;;;;;1.20;1.13;;;9.20;99.90;;;;;;5032351;28;20273;-75
2022/01/02 05:25:24;;;;;;;3.37;1.73;;;9.20;99.90;;;;;;5033912;28;20193;-75
2022/01/02 05:27:49;;;;;;;7.67;1.20;;;9.20;99.90;;;;;;5015402;28;20177;-75
2022/01/02 05:30:15;;;;;;;1.43;1.43;;;9.30;99.90;;;;;;5014347;28;20657;-74
2022/01/02 05:32:40;;;;;;;7.43;2.13;;;9.30;99.90;;;;;;5031937;28;20204;-74
2022/01/02 05:35:06;;;;;;;1.77;1.67;;;9.30;99.90;;;;;;5032137;28;20569;-75
2022/01/02 05:37:32;;;;;;;2.53;2.33;;;9.30;99.90;;;;;;5031533;28;20220;-74
2022/01/02 05:39:57;;;;;;;4.63;1.37;;;9.30;99.90;;;;;;5032130;28;20257;-74
2022/01/02 05:42:23;;;;;;;1.37;1.27;;;9.30;99.90;;;;;;5031945;28;20611;-74
2022/01/02 05:44:49;;;;;;;3.23;2.23;;;9.30;99.90;;;;;;5014256;28;20283;-75
2022/01/02 05:47:14;;;;;;;1.27;1.27;;;9.30;99.90;;;;;;5031864;28;20211;-74
2022/01/02 05:49:40;;;;;;;10.43;2.77;;;9.30;99.90;;;;;;5014215;28;20185;-74
2022/01/02 05:52:05;;;;;;;1.03;1.03;;;9.40;99.90;;;;;;5031697;28;20208;-74
2022/01/02 05:54:31;;;;;;;3.57;3.17;;;9.40;99.90;;;;;;5033444;28;20274;-74
2022/01/02 05:56:56;;;;;;;1.80;1.50;;;9.50;99.90;;;;;;5014722;28;20177;-74
2022/01/02 05:59:22;;;;;;;3.40;1.43;;;9.50;99.90;;;;;;5031727;28;20181;-75
2022/01/02 06:01:47;;;;;;;2.80;1.93;;;9.50;99.90;;;;;;5031727;28;20182;-74
2022/01/02 06:04:13;;;;;;;1.40;0.70;;;9.50;99.90;;;;;;5032236;28;20536;-73
2022/01/02 06:06:39;;;;;;;2.53;2.33;;;9.50;99.90;;;;;;5031485;28;20188;-72
2022/01/02 06:09:04;;;;;;;0.97;0.97;;;9.50;99.90;;;;;;5031968;28;20187;-73
2022/01/02 06:11:30;;;;;;;4.93;1.83;;;9.60;99.90;;;;;;5032430;28;20197;-73
2022/01/02 06:13:56;;;;;;;1.87;1.07;;;9.60;99.90;;;;;;5031707;28;20300;-73
2022/01/02 06:16:22;;;;;;;1.13;0.60;;;9.60;99.90;;;;;;5013365;28;20264;-72
2022/01/02 06:18:47;;;;;;;0.80;0.73;;;9.60;99.90;;;;;;5031564;28;20231;-73
2022/01/02 06:21:13;;;;;;;0.93;0.67;;;9.60;99.90;;;;;;5031267;28;20600;-72
2022/01/02 06:23:38;;;;;;;1.37;1.10;;;9.70;99.90;;;;;;5032008;28;20202;-73
2022/01/02 06:26:04;;;;;;;0.90;0.90;;;9.60;99.90;;;;;;5035702;28;20228;-73
2022/01/02 06:28:29;;;;;;;6.70;4.23;;;9.60;99.90;;;;;;5052491;28;20181;-73
2022/01/02 06:30:55;;;;;;;3.07;2.43;;;9.60;99.90;;;;;;5033901;28;20730;-73
2022/01/02 06:33:20;;;;;;;0.23;0.23;;;9.60;99.90;;;;;;5033417;28;20219;-73
2022/01/02 06:35:46;;;;;;;0.40;0.40;;;9.60;99.90;;;;;;5050956;28;20227;-72
2022/01/02 06:38:13;;;;;;;1.00;0.93;;;9.60;99.90;;;;;;5050859;28;20176;-72
2022/01/02 06:40:39;;;;;;;0.10;0.10;;;9.60;99.90;;;;;;5054987;28;20656;-72
2022/01/02 06:43:04;;;;;;;0.80;0.80;;;9.50;99.90;;;;;;5057687;28;20211;-72
2022/01/02 06:45:30;;;;;;;1.57;0.67;;;9.60;99.90;;;;;;5051157;28;20196;-72
2022/01/02 06:47:56;;;;;;;4.33;2.57;;;9.60;99.90;;;;;;5037818;28;20185;-72
2022/01/02 06:50:21;;;;;;;2.20;1.30;;;9.60;99.90;;;;;;5038048;28;20174;-72
2022/01/02 06:52:47;;;;;;;1.57;1.57;;;9.60;99.90;;;;;;5019976;28;20264;-72
2022/01/02 06:55:12;;;;;;;7.37;2.83;;;9.60;99.90;;;;;;5037766;28;20205;-72
2022/01/02 06:57:38;;;;;;;0.83;0.83;;;9.60;99.90;;;;;;5019789;28;20186;-72
2022/01/02 07:00:07;;;;;;;2.70;1.47;;;9.60;99.90;;;;;;5019964;28;20188;-73
2022/01/02 07:02:33;;;;;;;1.50;1.40;;;9.50;99.90;;;;;;5019912;28;20190;-72
2022/01/02 07:04:59;;;;;;;0.63;0.63;;;9.50;99.90;;;;;;5037592;28;20213;-73
2022/01/02 07:07:24;;;;;;;2.37;2.17;;;9.50;99.90;;;;;;5037517;28;20649;-73
2022/01/02 07:09:50;;;;;;;0.70;0.70;;;9.60;99.90;;;;;;5037737;28;20177;-74
2022/01/02 07:12:15;;;;;;;25.33;1.77;;;9.70;99.90;;;;;;5037783;28;20598;-73
2022/01/02 07:14:41;;;;;;;2.33;1.93;;;9.80;99.90;;;;;;5037371;28;20214;-74
2022/01/02 07:17:07;;;;;;;4.57;3.17;;;9.90;99.90;;;;;;5037373;28;20759;-74
2022/01/02 07:19:32;;;;;;;0.73;0.60;;;10.00;99.90;;;;;;5019751;28;20182;-74
2022/01/02 07:21:58;;;;;;;0.77;0.77;;;10.00;99.90;;;;;;5022329;28;20188;-74
2022/01/02 07:24:24;;;;;;;0.60;0.60;;;10.10;99.90;;;;;;5045629;28;20204;-73
2022/01/02 07:26:50;;;;;;;3.60;0.73;;;10.10;99.90;;;;;;5037533;28;20339;-74
2022/01/02 07:29:15;;;;;;;0.60;0.60;;;10.00;99.90;;;;;;5037870;28;20741;-74
2022/01/02 07:31:42;;;;;;;5.07;4.57;;;10.10;99.90;;;;;;5037699;28;20683;-74
2022/01/02 07:34:08;;;;;;;0.47;0.47;;;10.00;99.90;;;;;;5037742;28;20189;-74
2022/01/02 07:36:34;;;;;;;1.53;1.43;;;9.90;99.90;;;;;;5038540;28;20335;-73
2022/01/02 07:38:59;;;;;;;1.63;1.57;;;9.80;99.90;;;;;;5021330;28;20182;-74
2022/01/02 07:41:25;;;;;;;1.50;1.40;;;9.70;99.90;;;;;;5038847;28;20185;-74
2022/01/02 07:43:51;;;;;;;0.83;0.83;;;9.70;99.90;;;;;;5037841;28;20201;-74
2022/01/02 07:46:17;;;;;;;2.73;1.53;;;9.70;99.90;;;;;;5021041;28;20184;-74
2022/01/02 07:48:42;;;;;;;6.07;1.80;;;9.70;99.90;;;;;;5037581;28;20174;-73
2022/01/02 07:51:08;;;;;;;0.67;0.67;;;9.70;99.90;;;;;;5036661;28;20645;-73
2022/01/02 07:53:34;;;;;;;5.00;2.50;;;9.70;99.90;;;;;;5034269;28;20738;-74
2022/01/02 07:55:59;;;;;;;2.13;1.43;;;9.60;99.90;;;;;;5033758;28;20711;-74
2022/01/02 07:58:25;;;;;;;1.93;1.83;;;9.60;99.90;;;;;;5033711;28;20185;-74
2022/01/02 08:00:50;;;;;;;2.67;1.80;;;9.70;99.90;;;;;;5034026;28;20174;-74
2022/01/02 08:03:16;;;;;;;2.90;2.70;;;9.70;99.90;;;;;;5016149;28;20603;-74
2022/01/02 08:05:42;;;;;;;0.53;0.53;;;9.70;99.90;;;;;;5034017;28;20185;-74
2022/01/02 08:08:08;;;;;;;0.97;0.87;;;9.70;99.90;;;;;;5016129;28;20185;-74
2022/01/02 08:10:34;;;;;;;0.10;0.10;;;9.70;99.90;;;;;;5016226;28;20178;-74
2022/01/02 08:12:59;;;;;;;0.63;0.63;;;9.70;99.90;;;;;;5028997;28;20582;-73
2022/01/02 08:15:25;;;;;;;4.23;2.03;;;9.80;99.90;;;;;;5007186;28;20193;-74
2022/01/02 08:17:50;;;;;;;0.63;0.63;;;9.80;99.90;;;;;;5051118;28;20187;-74
2022/01/02 08:20:16;;;;;;;0.20;0.20;;;9.90;99.90;;;;;;5053811;28;20668;-74
2022/01/02 08:22:41;;;;;;;1.87;1.77;;;9.90;99.90;;;;;;5053632;28;20662;-74
2022/01/02 08:25:07;;;;;;;1.57;1.57;;;9.90;99.90;;;;;;5053024;28;20203;-74
2022/01/02 08:27:33;;;;;;;1.23;1.23;;;9.90;99.90;;;;;;5036087;28;20186;-74
2022/01/02 08:29:58;;;;;;;1.70;1.60;;;9.90;99.90;;;;;;5033519;28;20185;-75
2022/01/02 08:32:24;;;;;;;0.20;0.20;;;9.90;99.90;;;;;;5033436;28;20582;-75
2022/01/02 08:34:50;;;;;;;1.60;1.20;;;10.00;99.90;;;;;;5033246;28;20687;-75
2022/01/02 08:37:16;;;;;;;0.33;0.33;;;10.10;99.90;;;;;;5033120;28;20261;-74
2022/01/02 08:39:43;;;;;;;0.17;0.17;;;10.10;99.90;;;;;;5033318;28;20186;-74
2022/01/02 08:42:10;;;;;;;4.97;0.93;;;10.20;99.90;;;;;;5033401;28;20193;-73
2022/01/02 08:44:38;;;;;;;0.77;0.77;;;10.40;99.90;;;;;;5033244;28;20235;-74
2022/01/02 08:47:04;;;;;;;0.17;0.17;;;10.80;99.90;;;;;;5032693;28;20182;-75
2022/01/02 08:49:29;;;;;;;1.00;0.40;;;11.00;99.90;;;;;;5033266;28;20192;-74
2022/01/02 08:51:55;;;;;;;0.93;0.93;;;11.10;99.90;;;;;;5033250;28;20614;-74
2022/01/02 08:54:21;;;;;;;0.60;0.60;;;11.30;99.90;;;;;;5033490;28;20203;-74
2022/01/02 08:56:46;;;;;;;4.57;1.00;;;11.30;99.90;;;;;;5032895;28;20188;-74
2022/01/02 08:59:12;;;;;;;0.37;0.37;;;11.30;99.90;;;;;;5033476;28;20174;-75
2022/01/02 09:01:37;;;;;;;1.33;0.37;;;11.30;99.90;;;;;;5050686;28;20177;-74
2022/01/02 09:04:03;;;;;;;0.43;0.43;;;11.20;99.90;;;;;;5052588;28;20679;-74
2022/01/02 09:06:29;;;;;;;0.53;0.53;;;11.30;99.90;;;;;;5034713;28;20184;-74
2022/01/02 09:08:55;;;;;;;0.27;0.27;;;11.30;99.90;;;;;;5052862;28;20184;-74
2022/01/02 09:11:21;;;;;;;0.10;0.10;;;11.30;99.90;;;;;;5052658;28;20182;-74
2022/01/02 09:13:47;;;;;;;1.07;1.03;;;11.30;99.90;;;;;;5034727;28;20213;-75
2022/01/02 09:16:12;;;;;;;0.20;0.20;;;11.30;99.90;;;;;;5052345;28;20184;-74
2022/01/02 09:18:38;;;;;;;0.20;0.20;;;11.30;99.90;;;;;;5052507;28;20175;-74
2022/01/02 09:21:04;;;;;;;3.50;1.17;;;11.30;99.90;;;;;;5052739;28;20272;-75
2022/01/02 09:23:30;;;;;;;0.70;0.70;;;11.50;99.90;;;;;;5052557;28;20699;-75
2022/01/02 09:25:55;;;;;;;2.47;2.27;;;11.50;99.90;;;;;;5052095;28;20248;-75
2022/01/02 09:28:21;;;;;;;0.43;0.43;;;11.50;99.90;;;;;;5034395;28;20181;-75
2022/01/02 09:30:47;;;;;;;0.30;0.30;;;11.60;99.90;;;;;;5034396;28;20185;-76
2022/01/02 09:33:12;;;;;;;0.20;0.20;;;11.60;99.90;;;;;;5052018;28;20188;-76
2022/01/02 09:35:41;;;;;;;1.50;1.40;;;11.60;99.90;;;;;;5052234;28;20774;-75
2022/01/02 09:38:09;;;;;;;0.10;0.10;;;11.60;99.90;;;;;;5042138;28;20732;-76
2022/01/02 09:40:36;;;;;;;0.40;0.40;;;11.60;99.90;;;;;;5036893;28;20200;-75
2022/01/02 09:43:02;;;;;;;2.73;0.80;;;11.70;99.90;;;;;;5037521;28;20265;-75
2022/01/02 09:45:29;;;;;;;0.90;0.90;;;11.80;99.90;;;;;;5021512;28;20185;-75
2022/01/02 09:47:55;;;;;;;0.30;0.30;;;11.80;99.90;;;;;;5027012;28;20550;-75
2022/01/02 09:50:21;;;;;;;0.20;0.20;;;11.80;99.90;;;;;;5030312;28;20188;-75
2022/01/02 09:52:48;;;;;;;0.10;0.10;;;11.90;99.90;;;;;;5031788;28;20217;-74
2022/01/02 09:55:14;;;;;;;2.00;0.70;;;12.00;99.90;;;;;;5036283;28;20196;-75
2022/01/02 09:57:44;;;;;;;0.53;0.40;;;12.00;99.90;;;;;;5033624;28;20178;-74
2022/01/02 10:00:11;;;;;;;1.07;0.93;;;12.10;99.90;;;;;;5051398;28;20561;-74
2022/01/02 10:03:00;;;;;;;0.20;0.20;;;12.20;99.90;;;;;;5051646;28;20193;-75
2022/01/02 10:05:28;;;;;;;1.70;0.53;;;12.40;99.90;;;;;;5051662;28;20185;-76
2022/01/02 10:07:54;;;;;;;0.20;0.20;;;12.40;99.90;;;;;;5031452;28;20203;-75
2022/01/02 10:10:21;;;;;;;0.20;0.20;;;12.50;99.90;;;;;;5013858;28;20177;-75
2022/01/02 10:12:47;;;;;;;0.20;0.20;;;12.50;99.90;;;;;;5033828;28;20625;-75
2022/01/02 10:15:17;;;;;;;0.37;0.37;;;12.60;99.90;;;;;;5050407;28;20247;-75
2022/01/02 10:18:03;;;;;;;1.07;1.07;;;12.70;99.90;;;;;;5033124;28;20185;-75
2022/01/02 10:20:36;;;;;;;0.10;0.10;;;12.70;99.90;;;;;;5048182;28;20178;-75
2022/01/02 10:23:06;;;;;;;1.00;1.00;;;12.80;99.90;;;;;;5018104;28;20175;-75
2022/01/02 10:25:55;;;;;;;0.10;0.10;;;12.80;99.90;;;;;;5031436;28;20200;-75
2022/01/02 10:28:29;;;;;;;0.80;0.80;;;12.80;99.90;;;;;;5031423;28;20170;-75
2022/01/02 10:31:00;;;;;;;2.13;0.93;;;12.90;99.90;;;;;;5031260;28;20649;-75
2022/01/02 10:33:28;;;;;;;0.73;0.70;;;13.00;99.90;;;;;;5031030;28;20286;-74
2022/01/02 10:36:02;;;;;;;1.67;0.70;;;13.10;99.90;;;;;;5031207;28;20645;-75
2022/01/02 10:38:29;;;;;;;0.83;0.83;;;13.30;99.90;;;;;;5031537;28;20188;-75
2022/01/02 10:40:55;;;;;;;1.87;0.50;;;13.50;99.90;;;;;;5018289;28;20162;-75
2022/01/02 10:43:34;;;;;;;1.70;0.50;;;13.80;99.90;;;;;;5031137;28;20198;-75
2022/01/02 10:46:06;;;;;;;5.20;0.73;;;14.00;99.90;;;;;;5031416;28;20181;-75
2022/01/02 10:48:40;;;;;;;1.07;0.77;;;14.10;99.90;;;;;;5031178;28;20212;-74
2022/01/02 10:51:09;;;;;;;0.50;0.50;;;14.30;99.90;;;;;;5005522;28;20733;-74
2022/01/02 10:53:38;;;;;;;0.40;0.40;;;14.20;99.90;;;;;;5013793;28;20209;-74
2022/01/02 10:56:05;;;;;;;0.70;0.60;;;14.00;99.90;;;;;;5041942;28;20259;-74
2022/01/02 10:58:33;;;;;;;0.50;0.50;;;14.10;99.90;;;;;;5044548;28;20241;-75
2022/01/02 11:01:03;;;;;;;0.90;0.90;;;14.30;99.90;;;;;;5030469;28;20656;-75
2022/01/02 11:03:30;;;;;;;0.47;0.47;;;14.20;99.90;;;;;;5030918;28;20197;-75
2022/01/02 11:06:06;;;;;;;0.53;0.30;;;14.40;99.90;;;;;;5031062;28;20204;-75
2022/01/02 11:08:34;;;;;;;0.40;0.40;;;14.30;99.90;;;;;;5013531;28;20181;-75
2022/01/02 11:11:01;;;;;;;1.70;1.07;;;14.40;99.90;;;;;;5028640;28;20181;-75
2022/01/02 11:13:27;;;;;;;0.60;0.60;;;14.30;99.90;;;;;;5031474;28;20641;-74
2022/01/02 11:15:53;;;;;;;1.07;1.03;;;14.30;99.90;;;;;;5109725;22;20727;-73
2022/01/02 11:18:19;;;;;;;0.50;0.50;;;15.10;99.90;;;;;;5111323;28;20167;-73
2022/01/02 11:20:45;;;;;;;1.87;1.17;;;15.40;99.90;;;;;;5111122;28;20267;-73
2022/01/02 11:23:29;;;;;;;1.17;0.50;;;15.00;99.90;;;;;;5111535;28;20174;-73
2022/01/02 11:26:15;;;;;;;4.13;1.50;;;14.50;99.90;;;;;;5109390;27;20572;-73
2022/01/02 11:28:50;;;;;;;1.43;1.27;;;14.30;99.90;;;;;;5131486;27;20228;-73
2022/01/02 11:31:46;;;;;;;2.03;1.13;;;14.20;99.90;;;;;;5117472;27;20323;-72
2022/01/02 11:34:23;;;;;;;1.30;1.20;;;14.20;99.90;;;;;;5134306;27;20190;-73
2022/01/02 11:36:49;;;;;;;1.60;0.90;;;14.20;99.90;;;;;;5135392;27;20715;-73
2022/01/02 11:39:14;;;;;;;4.30;0.80;;;14.10;99.90;;;;;;5117317;27;20166;-73
2022/01/02 11:41:43;;;;;;;0.80;0.67;;;13.90;99.90;;;;;;5117526;27;20568;-72
2022/01/02 11:44:21;;;;;;;0.60;0.60;;;13.80;99.90;;;;;;5135353;27;20713;-72
2022/01/02 11:46:56;;;;;;;0.40;0.40;;;13.80;99.90;;;;;;5119929;27;20175;-73
2022/01/02 11:49:43;;;;;;;0.33;0.33;;;13.70;99.90;;;;;;5134614;27;20732;-73
2022/01/02 11:52:22;;;;;;;0.40;0.40;;;13.70;99.90;;;;;;5123600;27;20564;-73
2022/01/02 11:54:58;;;;;;;2.50;1.13;;;13.70;99.90;;;;;;5134943;27;20201;-73
2022/01/02 11:57:25;;;;;;;0.60;0.60;;;13.70;99.90;;;;;;5097067;28;20208;-73
2022/01/02 11:59:52;;;;;;;0.67;0.67;;;13.60;99.90;;;;;;5106733;27;20250;-73
2022/01/02 12:02:26;;;;;;;0.27;0.27;;;13.60;99.90;;;;;;5117262;27;20219;-73
2022/01/02 12:07:40;;;;;;;1.90;0.67;;;13.50;99.90;;;;;;5134781;27;20186;-71
2022/01/02 12:10:17;;;;;;;0.77;0.77;;;13.50;99.90;;;;;;5134954;27;20182;-72
2022/01/02 12:12:57;;;;;;;0.40;0.23;;;13.40;99.90;;;;;;5134685;27;20204;-73
2022/01/02 12:15:32;;;;;;;0.17;0.17;;;13.40;99.90;;;;;;5134167;27;20209;-73
2022/01/02 12:18:17;;;;;;;1.03;0.93;;;13.40;99.90;;;;;;5134653;27;20176;-73
2022/01/02 12:21:00;;;;;;;3.37;1.27;;;13.40;99.90;;;;;;5134835;27;20193;-73
2022/01/02 12:23:40;;;;;;;0.27;0.27;;;13.40;99.90;;;;;;5134497;27;20162;-73
2022/01/02 12:26:16;;;;;;;1.20;0.67;;;13.40;99.90;;;;;;5134001;27;20194;-73
2022/01/02 12:28:56;;;;;;;0.30;0.30;;;13.40;99.90;;;;;;5116003;27;20319;-73
2022/01/02 12:31:23;;;;;;;0.50;0.50;;;13.40;99.90;;;;;;5134414;27;20174;-72
2022/01/02 12:33:48;;;;;;;1.03;1.03;;;13.30;99.90;;;;;;5134378;27;20165;-72
2022/01/02 12:36:16;;;;;;;0.27;0.27;;;13.30;99.90;;;;;;5132231;27;20195;-72
2022/01/02 12:38:49;;;;;;;1.50;1.40;;;13.40;99.90;;;;;;5127575;27;20262;-73
2022/01/02 12:41:16;;;;;;;0.40;0.40;;;13.70;99.90;;;;;;5134025;27;20244;-72
2022/01/02 12:43:55;;;;;;;0.20;0.20;;;14.00;99.90;;;;;;5134153;27;20178;-72
2022/01/02 12:46:49;;;;;;;2.77;1.23;;;14.00;99.90;;;;;;5119601;27;20707;-73
2022/01/02 12:49:19;;;;;;;2.40;0.50;;;13.90;99.90;;;;;;5122087;27;20206;-72
2022/01/02 12:51:49;;;;;;;0.67;0.67;;;13.80;99.90;;;;;;5122463;27;20270;-72
2022/01/02 12:54:17;;;;;;;0.57;0.50;;;13.70;99.90;;;;;;5134443;27;20170;-72
2022/01/02 12:56:44;;;;;;;0.10;0.10;;;13.70;99.90;;;;;;5133163;27;20170;-72
2022/01/02 12:59:20;;;;;;;0.10;0.10;;;13.60;99.90;;;;;;5133801;27;20166;-72
2022/01/02 13:01:56;;;;;;;9.13;1.17;;;13.50;99.90;;;;;;5133638;27;20170;-72
2022/01/02 13:04:29;;;;;;;1.60;1.47;;;13.50;99.90;;;;;;5112333;27;20784;-72
2022/01/02 13:06:57;;;;;;;0.40;0.30;;;13.40;99.90;;;;;;5107291;27;20185;-72